createdAt,value
2023-03-21T00:04:44.552Z,32.65
2023-03-21T00:10:29.754Z,32.47
2023-03-21T00:16:26.364Z,34.22
2023-03-21T00:28:05.133Z,34.28
2023-03-21T00:33:34.887Z,34.13
2023-03-21T00:39:06.465Z,35.45
2023-03-21T00:44:37.175Z,35.58
2023-03-21T00:50:05.242Z,35.90
2023-03-21T00:55:32.839Z,35.58
2023-03-21T01:01:02.770Z,36.03
2023-03-21T01:06:31.355Z,36.15
2023-03-21T01:11:58.839Z,34.78
2023-03-21T01:17:26.582Z,33.90
2023-03-21T01:22:54.141Z,27.88
2023-03-21T01:28:22.332Z,26.27
2023-03-21T01:33:49.871Z,22.75
2023-03-21T01:39:17.611Z,21.33
2023-03-21T01:45:01.456Z,22.10
2023-03-21T01:50:38.132Z,22.13
2023-03-21T01:56:32.865Z,23.42
2023-03-21T02:02:10.299Z,21.30
2023-03-21T02:07:46.172Z,21.58
2023-03-21T02:13:18.583Z,23.42
2023-03-21T02:19:31.933Z,20.45
2023-03-21T02:25:27.632Z,21.83
2023-03-21T02:31:17.419Z,22.08
2023-03-21T02:36:51.890Z,22.27
2023-03-21T02:42:44.975Z,22.42
2023-03-21T02:48:33.140Z,24.77
2023-03-21T02:54:45.256Z,24.95
2023-03-21T03:00:07.709Z,24.70
2023-03-21T03:05:49.601Z,24.92
2023-03-21T03:11:36.915Z,25.70
2023-03-21T03:17:10.007Z,25.42
2023-03-21T03:23:11.831Z,25.52
2023-03-21T03:28:55.097Z,24.73
2023-03-21T03:34:26.707Z,23.80
2023-03-21T03:40:07.249Z,24.08
2023-03-21T03:45:54.150Z,25.45
2023-03-21T03:51:51.342Z,22.98
2023-03-21T03:57:41.241Z,24.35
2023-03-21T04:03:10.107Z,23.75
2023-03-21T04:08:38.086Z,24.27
2023-03-21T04:14:06.068Z,25.10
2023-03-21T04:19:34.274Z,24.73
2023-03-21T04:25:02.088Z,25.50
2023-03-21T04:30:34.384Z,25.83
2023-03-21T04:36:25.196Z,27.38
2023-03-21T04:41:55.513Z,27.23
2023-03-21T04:47:23.211Z,26.25
2023-03-21T04:52:50.904Z,26.13
2023-03-21T04:58:20.584Z,25.27
2023-03-21T05:03:48.574Z,26.88
2023-03-21T05:09:16.292Z,26.17
2023-03-21T05:14:44.723Z,26.80
2023-03-21T05:20:12.174Z,28.65
2023-03-21T05:25:40.600Z,28.90
2023-03-21T05:31:19.267Z,28.70
2023-03-21T05:36:50.348Z,28.55
2023-03-21T05:42:19.052Z,28.50
2023-03-21T05:47:47.444Z,28.23
2023-03-21T05:53:15.209Z,25.33
2023-03-21T05:58:42.379Z,28.13
2023-03-21T06:04:11.813Z,27.27
2023-03-21T06:09:40.481Z,27.92
2023-03-21T06:15:09.178Z,27.92
2023-03-21T06:20:45.107Z,28.52
2023-03-21T06:26:13.409Z,27.20
2023-03-21T06:31:41.520Z,26.60
2023-03-21T06:37:09.635Z,29.10
2023-03-21T06:42:38.352Z,25.48
2023-03-21T06:48:11.614Z,26.10
2023-03-21T06:53:57.437Z,24.92
2023-03-21T06:59:36.678Z,24.95
2023-03-21T07:05:19.814Z,24.60
2023-03-21T07:10:47.898Z,22.00
2023-03-21T07:16:18.323Z,20.95
2023-03-21T07:21:46.034Z,22.27
2023-03-21T07:27:13.538Z,22.38
2023-03-21T07:32:41.259Z,21.95
2023-03-21T07:38:08.763Z,23.77
2023-03-21T07:43:39.184Z,22.30
2023-03-21T07:49:10.516Z,22.85
2023-03-21T07:54:38.893Z,24.17
2023-03-21T08:00:07.682Z,22.27
2023-03-21T08:05:40.909Z,22.63
2023-03-21T08:11:09.113Z,22.63
2023-03-21T08:16:36.953Z,22.50
2023-03-21T08:22:07.515Z,21.75
2023-03-21T08:27:35.527Z,21.20
2023-03-21T08:33:03.150Z,17.65
2023-03-21T08:38:33.620Z,18.20
2023-03-21T08:44:00.876Z,17.27
2023-03-21T08:49:29.009Z,19.42
2023-03-21T08:54:56.878Z,17.67
2023-03-21T09:00:24.298Z,17.55
2023-03-21T09:05:54.341Z,18.42
2023-03-21T09:11:22.062Z,19.90
2023-03-21T09:16:50.258Z,20.70
2023-03-21T09:22:18.188Z,20.17
2023-03-21T09:27:46.452Z,21.35
2023-03-21T09:33:19.833Z,21.27
2023-03-21T09:44:21.857Z,20.90
2023-03-21T09:50:20.735Z,21.30
2023-03-21T09:55:48.391Z,20.00
2023-03-21T10:01:42.268Z,19.95
2023-03-21T10:07:20.892Z,20.02
2023-03-21T10:12:50.060Z,20.02
2023-03-21T10:18:25.318Z,21.02
2023-03-21T10:23:56.274Z,20.63
2023-03-21T10:29:31.924Z,19.58
2023-03-21T10:35:02.267Z,21.08
2023-03-21T10:40:30.844Z,21.33
2023-03-21T10:45:58.593Z,20.90
2023-03-21T10:51:31.289Z,21.60
2023-03-21T10:57:06.782Z,21.02
2023-03-21T11:02:38.390Z,21.60
2023-03-21T11:08:17.531Z,23.83
2023-03-21T11:13:45.503Z,23.83
2023-03-21T11:19:16.734Z,24.92
2023-03-21T11:24:51.685Z,25.05
2023-03-21T11:30:27.358Z,25.90
2023-03-21T11:36:00.574Z,26.02
2023-03-21T11:47:01.077Z,28.00
2023-03-21T11:52:44.350Z,28.70
2023-03-21T11:58:15.208Z,28.55
2023-03-21T12:04:04.716Z,27.08
2023-03-21T12:09:44.101Z,27.25
2023-03-21T12:15:29.814Z,28.13
2023-03-21T12:21:25.956Z,27.58
2023-03-21T12:27:16.495Z,27.67
2023-03-21T12:32:44.751Z,26.40
2023-03-21T12:38:26.386Z,28.20
2023-03-21T12:44:16.301Z,27.25
2023-03-21T12:50:09.764Z,27.13
2023-03-21T12:55:39.825Z,25.60
2023-03-21T13:01:12.566Z,24.98
2023-03-21T13:06:41.555Z,25.33
2023-03-21T13:12:42.670Z,23.70
2023-03-21T13:18:27.767Z,23.88
2023-03-21T13:24:03.324Z,24.45
2023-03-21T13:29:53.952Z,23.02
2023-03-21T13:35:41.416Z,24.75
2023-03-21T13:41:18.016Z,22.42
2023-03-21T13:47:03.406Z,21.45
2023-03-21T13:52:31.935Z,20.05
2023-03-21T13:57:59.588Z,17.90
2023-03-21T14:03:33.598Z,20.70
2023-03-21T14:09:04.103Z,12.30
2023-03-21T14:14:40.708Z,18.92
2023-03-21T14:20:18.837Z,18.90
2023-03-21T14:25:52.272Z,19.55
2023-03-21T14:31:21.436Z,18.67
2023-03-21T14:36:57.667Z,20.67
2023-03-21T14:42:27.277Z,20.83
2023-03-21T14:48:06.400Z,21.02
2023-03-21T14:53:38.581Z,20.75
2023-03-21T14:59:05.946Z,21.73
2023-03-21T15:04:35.824Z,23.42
2023-03-21T15:10:07.790Z,22.38
2023-03-21T15:15:37.534Z,21.98
2023-03-21T15:21:13.771Z,20.70
2023-03-21T15:26:47.093Z,23.35
2023-03-21T15:32:24.394Z,22.63
2023-03-21T15:37:56.065Z,22.90
2023-03-21T15:43:25.990Z,22.55
2023-03-21T15:49:13.765Z,24.85
2023-03-21T15:54:48.897Z,24.95
2023-03-21T16:00:18.644Z,25.50
2023-03-21T16:06:26.006Z,25.55
2023-03-21T16:12:00.108Z,24.75
2023-03-21T16:17:38.078Z,23.88
2023-03-21T16:23:06.116Z,25.27
2023-03-21T16:28:33.015Z,26.17
2023-03-21T16:34:01.941Z,26.33
2023-03-21T16:39:29.028Z,26.58
2023-03-21T16:44:57.346Z,27.27
2023-03-21T16:50:37.964Z,27.52
2023-03-21T16:56:06.349Z,27.88
2023-03-21T17:01:39.765Z,27.15
2023-03-21T17:07:18.269Z,26.95
2023-03-21T17:12:46.152Z,26.25
2023-03-21T17:18:13.393Z,27.17
2023-03-21T17:23:40.982Z,30.70
2023-03-21T17:29:10.964Z,32.13
2023-03-21T17:34:38.078Z,31.27
2023-03-21T17:40:12.623Z,29.98
2023-03-21T17:45:40.666Z,35.63
2023-03-21T17:51:12.971Z,35.75
2023-03-21T17:56:41.899Z,35.15
2023-03-21T18:02:09.285Z,37.90
2023-03-21T18:08:07.831Z,36.45
2023-03-21T18:13:25.401Z,36.50
2023-03-21T18:18:54.162Z,36.72
2023-03-21T18:24:21.701Z,33.70
2023-03-21T18:30:28.798Z,35.30
2023-03-21T18:35:37.325Z,35.30
2023-03-21T18:41:05.517Z,37.67
2023-03-21T18:46:33.719Z,39.17
2023-03-21T18:52:02.059Z,38.78
2023-03-21T18:57:37.051Z,41.25
2023-03-21T19:03:18.775Z,41.35
2023-03-21T19:08:46.892Z,45.53
2023-03-21T19:14:16.464Z,44.75
2023-03-21T19:19:43.952Z,46.53
2023-03-21T19:25:13.233Z,47.30
2023-03-21T19:30:49.862Z,43.58
2023-03-21T19:36:22.507Z,44.05
2023-03-21T19:41:51.640Z,43.92
2023-03-21T19:47:21.581Z,41.13
2023-03-21T19:52:50.452Z,39.85
2023-03-21T19:58:22.754Z,39.75
2023-03-21T20:03:50.925Z,44.47
2023-03-21T20:15:17.035Z,43.78
2023-03-21T20:20:45.658Z,42.33
2023-03-21T20:26:14.920Z,44.80
2023-03-21T20:31:42.757Z,44.13
2023-03-21T20:37:12.548Z,44.10
2023-03-21T20:42:41.060Z,43.22
2023-03-21T20:48:09.177Z,43.80
2023-03-21T20:53:37.699Z,43.90
2023-03-21T20:59:17.346Z,43.33
2023-03-21T21:05:21.539Z,40.92
2023-03-21T21:11:02.717Z,40.33
2023-03-21T21:16:28.146Z,39.47
2023-03-21T21:21:55.990Z,41.92
2023-03-21T21:27:24.014Z,45.13
2023-03-21T21:32:52.174Z,39.55
2023-03-21T21:38:21.143Z,36.45
2023-03-21T21:43:49.403Z,34.72
2023-03-21T21:49:17.103Z,33.67
2023-03-21T21:54:46.135Z,34.20
2023-03-21T22:00:14.769Z,33.50
2023-03-21T22:05:44.547Z,33.03
2023-03-21T22:11:12.278Z,33.17
2023-03-21T22:16:39.851Z,34.42
2023-03-21T22:22:06.912Z,32.95
2023-03-21T22:27:34.341Z,34.53
2023-03-21T22:33:09.345Z,35.08
2023-03-21T22:38:38.353Z,34.45
2023-03-21T22:44:06.201Z,34.88
2023-03-21T22:49:34.509Z,34.30
2023-03-21T22:55:02.078Z,35.35
2023-03-21T23:00:29.414Z,33.28
2023-03-21T23:06:00.700Z,34.60
2023-03-21T23:11:27.910Z,31.10
2023-03-21T23:16:55.150Z,32.75
2023-03-21T23:22:22.435Z,33.72
2023-03-21T23:27:51.075Z,31.83
2023-03-21T23:33:17.990Z,29.88
2023-03-21T23:38:46.121Z,32.30
2023-03-21T23:44:13.384Z,31.38
2023-03-21T23:49:41.119Z,31.08
2023-03-21T23:55:09.053Z,30.30
